sensor_id;sensor_type;location;lat;lon;timestamp;temperature;humidity
12841;DHT22;6487;48.626;12.486;2023-08-30T00:00:09;14.20;99.90
12841;DHT22;6487;48.626;12.486;2023-08-30T00:02:38;14.20;99.90
12841;DHT22;6487;48.626;12.486;2023-08-30T00:05:07;14.20;99.90
12841;DHT22;6487;48.626;12.486;2023-08-30T00:07:36;14.20;99.90
12841;DHT22;6487;48.626;12.486;2023-08-30T00:10:06;14.20;99.90
12841;DHT22;6487;48.626;12.486;2023-08-30T00:12:35;14.20;99.90
12841;DHT22;6487;48.626;12.486;2023-08-30T00:15:11;14.20;99.90
12841;DHT22;6487;48.626;12.486;2023-08-30T00:17:42;14.20;99.90
12841;DHT22;6487;48.626;12.486;2023-08-30T00:20:12;14.20;99.90
12841;DHT22;6487;48.626;12.486;2023-08-30T00:22:40;14.10;99.90
12841;DHT22;6487;48.626;12.486;2023-08-30T00:25:09;14.20;99.90
12841;DHT22;6487;48.626;12.486;2023-08-30T00:27:40;14.20;99.90
12841;DHT22;6487;48.626;12.486;2023-08-30T00:30:11;14.20;99.90
12841;DHT22;6487;48.626;12.486;2023-08-30T00:32:40;14.20;99.90
12841;DHT22;6487;48.626;12.486;2023-08-30T00:35:08;14.20;99.90
12841;DHT22;6487;48.626;12.486;2023-08-30T00:37:37;14.20;99.90
12841;DHT22;6487;48.626;12.486;2023-08-30T00:40:06;14.20;99.90
12841;DHT22;6487;48.626;12.486;2023-08-30T00:42:35;14.30;99.90
12841;DHT22;6487;48.626;12.486;2023-08-30T00:45:05;14.30;99.90
12841;DHT22;6487;48.626;12.486;2023-08-30T00:47:42;14.20;99.90
12841;DHT22;6487;48.626;12.486;2023-08-30T00:50:10;14.20;99.90
12841;DHT22;6487;48.626;12.486;2023-08-30T00:52:39;14.20;99.90
12841;DHT22;6487;48.626;12.486;2023-08-30T00:55:08;14.10;99.90
12841;DHT22;6487;48.626;12.486;2023-08-30T00:57:42;14.20;99.90
12841;DHT22;6487;48.626;12.486;2023-08-30T01:00:14;14.20;99.90
12841;DHT22;6487;48.626;12.486;2023-08-30T01:02:46;14.20;99.90
12841;DHT22;6487;48.626;12.486;2023-08-30T01:05:15;14.30;99.90
12841;DHT22;6487;48.626;12.486;2023-08-30T01:07:44;14.30;99.90
12841;DHT22;6487;48.626;12.486;2023-08-30T01:10:13;14.20;99.90
12841;DHT22;6487;48.626;12.486;2023-08-30T01:12:45;14.30;99.90
12841;DHT22;6487;48.626;12.486;2023-08-30T01:15:19;14.30;99.90
12841;DHT22;6487;48.626;12.486;2023-08-30T01:17:53;14.30;99.90
12841;DHT22;6487;48.626;12.486;2023-08-30T01:20:23;14.30;99.90
12841;DHT22;6487;48.626;12.486;2023-08-30T01:22:56;14.30;99.90
12841;DHT22;6487;48.626;12.486;2023-08-30T01:25:35;14.40;99.90
12841;DHT22;6487;48.626;12.486;2023-08-30T01:28:12;14.40;99.90
12841;DHT22;6487;48.626;12.486;2023-08-30T01:30:45;14.40;99.90
12841;DHT22;6487;48.626;12.486;2023-08-30T01:33:15;14.30;99.90
12841;DHT22;6487;48.626;12.486;2023-08-30T01:35:46;14.30;99.90
12841;DHT22;6487;48.626;12.486;2023-08-30T01:38:14;14.40;99.90
12841;DHT22;6487;48.626;12.486;2023-08-30T01:40:44;14.40;99.90
12841;DHT22;6487;48.626;12.486;2023-08-30T01:43:14;14.40;99.90
12841;DHT22;6487;48.626;12.486;2023-08-30T01:45:44;14.40;99.90
12841;DHT22;6487;48.626;12.486;2023-08-30T01:48:16;14.40;99.90
12841;DHT22;6487;48.626;12.486;2023-08-30T01:50:45;14.40;99.90
12841;DHT22;6487;48.626;12.486;2023-08-30T01:53:14;14.40;99.90
12841;DHT22;6487;48.626;12.486;2023-08-30T01:55:43;14.40;99.90
12841;DHT22;6487;48.626;12.486;2023-08-30T01:58:13;14.50;99.90
12841;DHT22;6487;48.626;12.486;2023-08-30T02:00:42;14.40;99.90
12841;DHT22;6487;48.626;12.486;2023-08-30T02:03:10;14.40;99.90
12841;DHT22;6487;48.626;12.486;2023-08-30T02:05:47;14.40;99.90
12841;DHT22;6487;48.626;12.486;2023-08-30T02:08:22;14.40;99.90
12841;DHT22;6487;48.626;12.486;2023-08-30T02:11:01;14.30;99.90
12841;DHT22;6487;48.626;12.486;2023-08-30T02:13:33;14.40;99.90
12841;DHT22;6487;48.626;12.486;2023-08-30T02:16:03;14.40;99.90
12841;DHT22;6487;48.626;12.486;2023-08-30T02:18:34;14.40;99.90
12841;DHT22;6487;48.626;12.486;2023-08-30T02:21:03;14.40;99.90
12841;DHT22;6487;48.626;12.486;2023-08-30T02:23:31;14.40;99.90
12841;DHT22;6487;48.626;12.486;2023-08-30T02:25:59;14.40;99.90
12841;DHT22;6487;48.626;12.486;2023-08-30T02:28:31;14.40;99.90
12841;DHT22;6487;48.626;12.486;2023-08-30T02:30:59;14.40;99.90
12841;DHT22;6487;48.626;12.486;2023-08-30T02:33:28;14.40;99.90
12841;DHT22;6487;48.626;12.486;2023-08-30T02:35:56;14.40;99.90
12841;DHT22;6487;48.626;12.486;2023-08-30T02:38:24;14.40;99.90
12841;DHT22;6487;48.626;12.486;2023-08-30T02:40:53;14.30;99.90
12841;DHT22;6487;48.626;12.486;2023-08-30T02:43:22;14.40;99.90
12841;DHT22;6487;48.626;12.486;2023-08-30T02:45:53;14.40;99.90
12841;DHT22;6487;48.626;12.486;2023-08-30T02:48:22;14.40;99.90
12841;DHT22;6487;48.626;12.486;2023-08-30T02:50:50;14.40;99.90
12841;DHT22;6487;48.626;12.486;2023-08-30T02:53:18;14.40;99.90
12841;DHT22;6487;48.626;12.486;2023-08-30T02:55:47;14.40;99.90
12841;DHT22;6487;48.626;12.486;2023-08-30T02:58:15;14.40;99.90
12841;DHT22;6487;48.626;12.486;2023-08-30T03:00:44;14.50;99.90
12841;DHT22;6487;48.626;12.486;2023-08-30T03:03:13;14.40;99.90
12841;DHT22;6487;48.626;12.486;2023-08-30T03:05:42;14.40;99.90
12841;DHT22;6487;48.626;12.486;2023-08-30T03:08:10;14.40;99.90
12841;DHT22;6487;48.626;12.486;2023-08-30T03:10:39;14.40;99.90
12841;DHT22;6487;48.626;12.486;2023-08-30T03:13:07;14.40;99.90
12841;DHT22;6487;48.626;12.486;2023-08-30T03:15:35;14.40;99.90
12841;DHT22;6487;48.626;12.486;2023-08-30T03:18:04;14.50;99.90
12841;DHT22;6487;48.626;12.486;2023-08-30T03:20:36;14.50;99.90
12841;DHT22;6487;48.626;12.486;2023-08-30T03:23:04;14.50;99.90
12841;DHT22;6487;48.626;12.486;2023-08-30T03:25:33;14.50;99.90
12841;DHT22;6487;48.626;12.486;2023-08-30T03:28:01;14.50;99.90
12841;DHT22;6487;48.626;12.486;2023-08-30T03:30:30;14.50;99.90
12841;DHT22;6487;48.626;12.486;2023-08-30T03:33:01;14.40;99.90
12841;DHT22;6487;48.626;12.486;2023-08-30T03:35:35;14.50;99.90
12841;DHT22;6487;48.626;12.486;2023-08-30T03:38:03;14.50;99.90
12841;DHT22;6487;48.626;12.486;2023-08-30T03:40:32;14.40;99.90
12841;DHT22;6487;48.626;12.486;2023-08-30T03:43:00;14.50;99.90
12841;DHT22;6487;48.626;12.486;2023-08-30T03:45:29;14.50;99.90
12841;DHT22;6487;48.626;12.486;2023-08-30T03:47:57;14.50;99.90
12841;DHT22;6487;48.626;12.486;2023-08-30T03:50:25;14.30;99.90
12841;DHT22;6487;48.626;12.486;2023-08-30T03:52:55;14.30;99.90
12841;DHT22;6487;48.626;12.486;2023-08-30T03:55:23;14.40;99.90
12841;DHT22;6487;48.626;12.486;2023-08-30T03:57:52;14.40;99.90
12841;DHT22;6487;48.626;12.486;2023-08-30T04:00:23;14.40;99.90
12841;DHT22;6487;48.626;12.486;2023-08-30T04:02:54;14.40;99.90
12841;DHT22;6487;48.626;12.486;2023-08-30T04:05:23;14.30;99.90
12841;DHT22;6487;48.626;12.486;2023-08-30T04:07:56;14.30;99.90
12841;DHT22;6487;48.626;12.486;2023-08-30T04:10:24;14.40;99.90
12841;DHT22;6487;48.626;12.486;2023-08-30T04:12:55;14.40;99.90
12841;DHT22;6487;48.626;12.486;2023-08-30T04:15:24;14.40;99.90
12841;DHT22;6487;48.626;12.486;2023-08-30T04:17:55;14.40;99.90
12841;DHT22;6487;48.626;12.486;2023-08-30T04:20:26;14.40;99.90
12841;DHT22;6487;48.626;12.486;2023-08-30T04:22:55;14.40;99.90
12841;DHT22;6487;48.626;12.486;2023-08-30T04:25:24;14.40;99.90
12841;DHT22;6487;48.626;12.486;2023-08-30T04:27:53;14.40;99.90
12841;DHT22;6487;48.626;12.486;2023-08-30T04:30:21;14.40;99.90
12841;DHT22;6487;48.626;12.486;2023-08-30T04:32:50;14.40;99.90
12841;DHT22;6487;48.626;12.486;2023-08-30T04:35:18;14.30;99.90
12841;DHT22;6487;48.626;12.486;2023-08-30T04:37:47;14.40;99.90
12841;DHT22;6487;48.626;12.486;2023-08-30T04:40:16;14.40;99.90
12841;DHT22;6487;48.626;12.486;2023-08-30T04:42:45;14.40;99.90
12841;DHT22;6487;48.626;12.486;2023-08-30T04:45:13;14.30;99.90
12841;DHT22;6487;48.626;12.486;2023-08-30T04:47:42;14.30;99.90
12841;DHT22;6487;48.626;12.486;2023-08-30T04:50:12;14.40;99.90
12841;DHT22;6487;48.626;12.486;2023-08-30T04:52:41;14.40;99.90
12841;DHT22;6487;48.626;12.486;2023-08-30T04:55:09;14.40;99.90
12841;DHT22;6487;48.626;12.486;2023-08-30T04:57:39;14.40;99.90
12841;DHT22;6487;48.626;12.486;2023-08-30T05:00:12;14.30;99.90
12841;DHT22;6487;48.626;12.486;2023-08-30T05:02:41;14.30;99.90
12841;DHT22;6487;48.626;12.486;2023-08-30T05:05:11;14.40;99.90
12841;DHT22;6487;48.626;12.486;2023-08-30T05:07:39;14.40;99.90
12841;DHT22;6487;48.626;12.486;2023-08-30T05:10:08;14.40;99.90
12841;DHT22;6487;48.626;12.486;2023-08-30T05:12:41;14.30;99.90
12841;DHT22;6487;48.626;12.486;2023-08-30T05:15:14;14.30;99.90
12841;DHT22;6487;48.626;12.486;2023-08-30T05:17:43;14.30;99.90
12841;DHT22;6487;48.626;12.486;2023-08-30T05:20:11;14.40;99.90
12841;DHT22;6487;48.626;12.486;2023-08-30T05:22:40;14.50;99.90
12841;DHT22;6487;48.626;12.486;2023-08-30T05:25:08;14.50;99.90
12841;DHT22;6487;48.626;12.486;2023-08-30T05:27:37;14.50;99.90
12841;DHT22;6487;48.626;12.486;2023-08-30T05:30:08;14.60;99.90
12841;DHT22;6487;48.626;12.486;2023-08-30T05:32:37;14.60;99.90
12841;DHT22;6487;48.626;12.486;2023-08-30T05:35:06;14.60;99.90
12841;DHT22;6487;48.626;12.486;2023-08-30T05:37:35;14.70;99.90
12841;DHT22;6487;48.626;12.486;2023-08-30T05:40:04;14.70;99.90
12841;DHT22;6487;48.626;12.486;2023-08-30T05:42:34;14.70;99.90
12841;DHT22;6487;48.626;12.486;2023-08-30T05:45:03;14.80;99.90
12841;DHT22;6487;48.626;12.486;2023-08-30T05:47:33;14.80;99.90
12841;DHT22;6487;48.626;12.486;2023-08-30T05:50:02;14.90;99.90
12841;DHT22;6487;48.626;12.486;2023-08-30T05:52:32;14.90;99.90
12841;DHT22;6487;48.626;12.486;2023-08-30T05:55:00;14.80;99.90
12841;DHT22;6487;48.626;12.486;2023-08-30T05:57:29;14.80;99.90
12841;DHT22;6487;48.626;12.486;2023-08-30T06:00:00;14.90;99.90
12841;DHT22;6487;48.626;12.486;2023-08-30T06:02:28;15.00;99.90
12841;DHT22;6487;48.626;12.486;2023-08-30T06:04:58;14.90;99.90
12841;DHT22;6487;48.626;12.486;2023-08-30T06:07:26;15.00;99.90
12841;DHT22;6487;48.626;12.486;2023-08-30T06:09:55;15.00;99.90
12841;DHT22;6487;48.626;12.486;2023-08-30T06:12:25;15.00;99.90
12841;DHT22;6487;48.626;12.486;2023-08-30T06:14:53;15.00;99.90
12841;DHT22;6487;48.626;12.486;2023-08-30T06:17:22;15.00;99.90
12841;DHT22;6487;48.626;12.486;2023-08-30T06:19:50;15.00;99.90
12841;DHT22;6487;48.626;12.486;2023-08-30T06:22:20;15.00;99.90
12841;DHT22;6487;48.626;12.486;2023-08-30T06:24:48;15.10;99.90
12841;DHT22;6487;48.626;12.486;2023-08-30T06:27:17;15.00;99.90
12841;DHT22;6487;48.626;12.486;2023-08-30T06:29:45;15.00;99.90
12841;DHT22;6487;48.626;12.486;2023-08-30T06:32:13;15.00;99.90
12841;DHT22;6487;48.626;12.486;2023-08-30T06:34:42;15.00;99.90
12841;DHT22;6487;48.626;12.486;2023-08-30T06:37:10;15.00;99.90
12841;DHT22;6487;48.626;12.486;2023-08-30T06:39:40;15.00;99.90
12841;DHT22;6487;48.626;12.486;2023-08-30T06:42:08;15.00;99.90
12841;DHT22;6487;48.626;12.486;2023-08-30T06:44:37;14.90;99.90
12841;DHT22;6487;48.626;12.486;2023-08-30T06:47:07;14.80;99.90
12841;DHT22;6487;48.626;12.486;2023-08-30T06:49:35;14.90;99.90
12841;DHT22;6487;48.626;12.486;2023-08-30T06:52:05;14.90;99.90
12841;DHT22;6487;48.626;12.486;2023-08-30T06:54:34;14.80;99.90
12841;DHT22;6487;48.626;12.486;2023-08-30T06:57:05;14.90;99.90
12841;DHT22;6487;48.626;12.486;2023-08-30T06:59:36;14.90;99.90
12841;DHT22;6487;48.626;12.486;2023-08-30T07:02:04;14.90;99.90
12841;DHT22;6487;48.626;12.486;2023-08-30T07:04:32;14.90;99.90
12841;DHT22;6487;48.626;12.486;2023-08-30T07:07:01;14.90;99.90
12841;DHT22;6487;48.626;12.486;2023-08-30T07:09:30;15.00;99.90
12841;DHT22;6487;48.626;12.486;2023-08-30T07:12:00;15.00;99.90
12841;DHT22;6487;48.626;12.486;2023-08-30T07:14:29;15.00;99.90
12841;DHT22;6487;48.626;12.486;2023-08-30T07:16:58;15.00;99.90
12841;DHT22;6487;48.626;12.486;2023-08-30T07:19:26;15.00;99.90
12841;DHT22;6487;48.626;12.486;2023-08-30T07:21:55;15.00;99.90
12841;DHT22;6487;48.626;12.486;2023-08-30T07:24:23;15.10;99.90
12841;DHT22;6487;48.626;12.486;2023-08-30T07:26:52;15.10;99.90
12841;DHT22;6487;48.626;12.486;2023-08-30T07:29:20;15.00;99.90
12841;DHT22;6487;48.626;12.486;2023-08-30T07:31:50;15.10;99.90
12841;DHT22;6487;48.626;12.486;2023-08-30T07:34:20;15.20;99.90
12841;DHT22;6487;48.626;12.486;2023-08-30T07:36:48;15.20;99.90
12841;DHT22;6487;48.626;12.486;2023-08-30T07:39:17;15.30;99.90
12841;DHT22;6487;48.626;12.486;2023-08-30T07:41:45;15.30;99.90
12841;DHT22;6487;48.626;12.486;2023-08-30T07:44:13;15.20;99.90
12841;DHT22;6487;48.626;12.486;2023-08-30T07:46:42;15.40;99.90
12841;DHT22;6487;48.626;12.486;2023-08-30T07:49:12;15.50;99.90
12841;DHT22;6487;48.626;12.486;2023-08-30T07:51:40;15.50;99.90
12841;DHT22;6487;48.626;12.486;2023-08-30T07:54:09;15.60;99.90
12841;DHT22;6487;48.626;12.486;2023-08-30T07:56:37;15.70;99.90
12841;DHT22;6487;48.626;12.486;2023-08-30T07:59:05;15.80;99.90
12841;DHT22;6487;48.626;12.486;2023-08-30T08:01:34;15.80;99.90
12841;DHT22;6487;48.626;12.486;2023-08-30T08:04:02;16.00;99.90
12841;DHT22;6487;48.626;12.486;2023-08-30T08:06:35;16.20;99.90
12841;DHT22;6487;48.626;12.486;2023-08-30T08:09:04;16.40;99.90
12841;DHT22;6487;48.626;12.486;2023-08-30T08:11:37;16.40;99.90
12841;DHT22;6487;48.626;12.486;2023-08-30T08:14:10;16.60;99.90
12841;DHT22;6487;48.626;12.486;2023-08-30T08:16:38;16.70;99.90
12841;DHT22;6487;48.626;12.486;2023-08-30T08:19:07;16.80;99.90
12841;DHT22;6487;48.626;12.486;2023-08-30T08:21:36;16.80;99.90
12841;DHT22;6487;48.626;12.486;2023-08-30T08:24:05;16.90;99.90
12841;DHT22;6487;48.626;12.486;2023-08-30T08:26:34;16.90;99.90
12841;DHT22;6487;48.626;12.486;2023-08-30T08:29:03;17.10;99.90
12841;DHT22;6487;48.626;12.486;2023-08-30T08:31:31;17.20;99.90
12841;DHT22;6487;48.626;12.486;2023-08-30T08:34:08;17.40;99.90
12841;DHT22;6487;48.626;12.486;2023-08-30T08:36:42;17.40;99.90
12841;DHT22;6487;48.626;12.486;2023-08-30T08:39:11;17.60;99.90
12841;DHT22;6487;48.626;12.486;2023-08-30T08:41:42;17.80;99.90
12841;DHT22;6487;48.626;12.486;2023-08-30T08:44:12;17.50;99.90
12841;DHT22;6487;48.626;12.486;2023-08-30T08:46:41;17.70;99.90
12841;DHT22;6487;48.626;12.486;2023-08-30T08:49:12;17.80;99.90
12841;DHT22;6487;48.626;12.486;2023-08-30T08:51:44;17.50;99.90
12841;DHT22;6487;48.626;12.486;2023-08-30T08:54:13;17.70;99.90
12841;DHT22;6487;48.626;12.486;2023-08-30T08:56:41;17.90;99.90
12841;DHT22;6487;48.626;12.486;2023-08-30T08:59:10;18.00;99.90
12841;DHT22;6487;48.626;12.486;2023-08-30T09:01:39;18.00;99.90
12841;DHT22;6487;48.626;12.486;2023-08-30T09:04:08;18.00;99.90
12841;DHT22;6487;48.626;12.486;2023-08-30T09:06:38;18.10;99.90
12841;DHT22;6487;48.626;12.486;2023-08-30T09:09:09;18.10;99.90
12841;DHT22;6487;48.626;12.486;2023-08-30T09:11:38;18.00;99.90
12841;DHT22;6487;48.626;12.486;2023-08-30T09:14:09;18.00;99.90
12841;DHT22;6487;48.626;12.486;2023-08-30T09:16:38;18.00;99.90
12841;DHT22;6487;48.626;12.486;2023-08-30T09:19:06;17.90;99.90
12841;DHT22;6487;48.626;12.486;2023-08-30T09:21:37;17.90;99.90
12841;DHT22;6487;48.626;12.486;2023-08-30T09:24:07;17.90;99.90
12841;DHT22;6487;48.626;12.486;2023-08-30T09:26:36;17.90;99.90
12841;DHT22;6487;48.626;12.486;2023-08-30T09:29:06;17.90;99.90
12841;DHT22;6487;48.626;12.486;2023-08-30T09:31:37;18.00;99.90
12841;DHT22;6487;48.626;12.486;2023-08-30T09:34:07;18.00;99.90
12841;DHT22;6487;48.626;12.486;2023-08-30T09:36:38;18.10;99.90
12841;DHT22;6487;48.626;12.486;2023-08-30T09:39:09;18.00;99.90
12841;DHT22;6487;48.626;12.486;2023-08-30T09:41:42;18.10;99.90
12841;DHT22;6487;48.626;12.486;2023-08-30T09:44:12;18.20;99.90
12841;DHT22;6487;48.626;12.486;2023-08-30T09:46:42;18.30;99.90
12841;DHT22;6487;48.626;12.486;2023-08-30T09:49:20;18.40;99.90
12841;DHT22;6487;48.626;12.486;2023-08-30T09:51:50;18.30;99.90
12841;DHT22;6487;48.626;12.486;2023-08-30T09:54:41;18.40;99.90
12841;DHT22;6487;48.626;12.486;2023-08-30T09:57:10;18.60;99.90
12841;DHT22;6487;48.626;12.486;2023-08-30T09:59:39;18.70;99.90
12841;DHT22;6487;48.626;12.486;2023-08-30T10:02:08;18.80;99.90
12841;DHT22;6487;48.626;12.486;2023-08-30T10:04:38;18.90;99.90
12841;DHT22;6487;48.626;12.486;2023-08-30T10:07:09;18.90;99.90
12841;DHT22;6487;48.626;12.486;2023-08-30T10:09:39;19.00;99.90
12841;DHT22;6487;48.626;12.486;2023-08-30T10:12:28;19.10;99.90
12841;DHT22;6487;48.626;12.486;2023-08-30T10:14:57;19.20;99.90
12841;DHT22;6487;48.626;12.486;2023-08-30T10:17:28;19.20;99.90
12841;DHT22;6487;48.626;12.486;2023-08-30T10:20:04;19.40;99.90
12841;DHT22;6487;48.626;12.486;2023-08-30T10:22:36;19.50;99.90
12841;DHT22;6487;48.626;12.486;2023-08-30T10:25:11;19.60;99.90
12841;DHT22;6487;48.626;12.486;2023-08-30T10:27:46;19.70;99.90
12841;DHT22;6487;48.626;12.486;2023-08-30T10:30:16;19.90;99.90
12841;DHT22;6487;48.626;12.486;2023-08-30T10:32:46;19.90;99.90
12841;DHT22;6487;48.626;12.486;2023-08-30T10:35:17;20.00;99.90
12841;DHT22;6487;48.626;12.486;2023-08-30T10:37:54;20.10;99.90
12841;DHT22;6487;48.626;12.486;2023-08-30T10:40:24;20.10;99.90
12841;DHT22;6487;48.626;12.486;2023-08-30T10:42:59;20.20;99.90
12841;DHT22;6487;48.626;12.486;2023-08-30T10:45:28;20.50;99.90
12841;DHT22;6487;48.626;12.486;2023-08-30T10:47:57;20.60;99.90
12841;DHT22;6487;48.626;12.486;2023-08-30T10:50:28;20.70;99.90
12841;DHT22;6487;48.626;12.486;2023-08-30T10:52:57;20.90;99.90
12841;DHT22;6487;48.626;12.486;2023-08-30T10:55:28;21.00;99.90
12841;DHT22;6487;48.626;12.486;2023-08-30T10:58:00;21.10;99.90
12841;DHT22;6487;48.626;12.486;2023-08-30T11:00:30;21.00;99.90
12841;DHT22;6487;48.626;12.486;2023-08-30T11:03:00;20.90;99.90
12841;DHT22;6487;48.626;12.486;2023-08-30T11:05:29;20.90;99.90
12841;DHT22;6487;48.626;12.486;2023-08-30T11:07:58;21.10;99.90
12841;DHT22;6487;48.626;12.486;2023-08-30T11:10:31;21.30;99.90
12841;DHT22;6487;48.626;12.486;2023-08-30T11:13:01;21.40;99.90
12841;DHT22;6487;48.626;12.486;2023-08-30T11:15:30;21.50;99.90
12841;DHT22;6487;48.626;12.486;2023-08-30T11:18:05;21.70;99.90
12841;DHT22;6487;48.626;12.486;2023-08-30T11:20:34;21.90;99.90
12841;DHT22;6487;48.626;12.486;2023-08-30T11:23:03;21.90;99.90
12841;DHT22;6487;48.626;12.486;2023-08-30T11:25:33;21.80;99.90
12841;DHT22;6487;48.626;12.486;2023-08-30T11:28:04;21.70;99.90
12841;DHT22;6487;48.626;12.486;2023-08-30T11:30:40;21.70;99.90
12841;DHT22;6487;48.626;12.486;2023-08-30T11:33:08;21.60;99.90
12841;DHT22;6487;48.626;12.486;2023-08-30T11:35:38;21.50;99.90
12841;DHT22;6487;48.626;12.486;2023-08-30T11:38:06;21.50;99.90
12841;DHT22;6487;48.626;12.486;2023-08-30T11:40:36;21.40;99.90
12841;DHT22;6487;48.626;12.486;2023-08-30T11:43:07;21.40;99.90
12841;DHT22;6487;48.626;12.486;2023-08-30T11:45:36;21.30;99.90
12841;DHT22;6487;48.626;12.486;2023-08-30T11:48:05;21.20;99.90
12841;DHT22;6487;48.626;12.486;2023-08-30T11:50:35;21.00;99.90
12841;DHT22;6487;48.626;12.486;2023-08-30T11:53:14;20.80;99.90
12841;DHT22;6487;48.626;12.486;2023-08-30T11:55:45;20.80;99.90
12841;DHT22;6487;48.626;12.486;2023-08-30T11:58:13;20.80;99.90
12841;DHT22;6487;48.626;12.486;2023-08-30T12:00:41;20.60;99.90
12841;DHT22;6487;48.626;12.486;2023-08-30T12:03:13;20.40;99.90
12841;DHT22;6487;48.626;12.486;2023-08-30T12:05:46;20.20;99.90
12841;DHT22;6487;48.626;12.486;2023-08-30T12:08:18;19.90;99.90
12841;DHT22;6487;48.626;12.486;2023-08-30T12:10:49;19.80;99.90
12841;DHT22;6487;48.626;12.486;2023-08-30T12:13:22;19.60;99.90
12841;DHT22;6487;48.626;12.486;2023-08-30T12:15:50;19.60;99.90
12841;DHT22;6487;48.626;12.486;2023-08-30T12:18:21;19.70;99.90
12841;DHT22;6487;48.626;12.486;2023-08-30T12:20:54;19.50;99.90
12841;DHT22;6487;48.626;12.486;2023-08-30T12:23:25;19.60;99.90
12841;DHT22;6487;48.626;12.486;2023-08-30T12:26:00;19.50;99.90
12841;DHT22;6487;48.626;12.486;2023-08-30T12:28:32;19.40;99.90
12841;DHT22;6487;48.626;12.486;2023-08-30T12:31:02;19.40;99.90
12841;DHT22;6487;48.626;12.486;2023-08-30T12:33:31;19.40;99.90
12841;DHT22;6487;48.626;12.486;2023-08-30T12:35:59;19.30;99.90
12841;DHT22;6487;48.626;12.486;2023-08-30T12:38:27;19.30;99.90
12841;DHT22;6487;48.626;12.486;2023-08-30T12:40:57;19.40;99.90
12841;DHT22;6487;48.626;12.486;2023-08-30T12:43:26;19.50;99.90
12841;DHT22;6487;48.626;12.486;2023-08-30T12:45:55;19.50;99.90
12841;DHT22;6487;48.626;12.486;2023-08-30T12:48:23;19.60;99.90
12841;DHT22;6487;48.626;12.486;2023-08-30T12:50:52;19.60;99.90
12841;DHT22;6487;48.626;12.486;2023-08-30T12:53:20;19.80;99.90
12841;DHT22;6487;48.626;12.486;2023-08-30T12:55:48;19.80;99.90
12841;DHT22;6487;48.626;12.486;2023-08-30T12:58:17;19.90;99.90
12841;DHT22;6487;48.626;12.486;2023-08-30T13:00:46;20.00;99.90
12841;DHT22;6487;48.626;12.486;2023-08-30T13:03:15;19.90;99.90
12841;DHT22;6487;48.626;12.486;2023-08-30T13:05:43;19.90;99.90
12841;DHT22;6487;48.626;12.486;2023-08-30T13:08:11;19.90;99.90
12841;DHT22;6487;48.626;12.486;2023-08-30T13:10:40;20.00;99.90
12841;DHT22;6487;48.626;12.486;2023-08-30T13:13:09;20.00;99.90
12841;DHT22;6487;48.626;12.486;2023-08-30T13:15:37;20.20;99.90
12841;DHT22;6487;48.626;12.486;2023-08-30T13:18:07;20.30;99.90
12841;DHT22;6487;48.626;12.486;2023-08-30T13:20:38;20.20;99.90
12841;DHT22;6487;48.626;12.486;2023-08-30T13:23:07;20.10;99.90
12841;DHT22;6487;48.626;12.486;2023-08-30T13:25:38;20.20;99.90
12841;DHT22;6487;48.626;12.486;2023-08-30T13:28:07;20.20;99.90
12841;DHT22;6487;48.626;12.486;2023-08-30T13:30:36;20.20;99.90
12841;DHT22;6487;48.626;12.486;2023-08-30T13:33:04;20.30;99.90
12841;DHT22;6487;48.626;12.486;2023-08-30T13:35:34;20.20;99.90
12841;DHT22;6487;48.626;12.486;2023-08-30T13:38:03;20.10;99.90
12841;DHT22;6487;48.626;12.486;2023-08-30T13:40:31;20.10;99.90
12841;DHT22;6487;48.626;12.486;2023-08-30T13:42:59;20.00;99.90
12841;DHT22;6487;48.626;12.486;2023-08-30T13:45:28;20.10;99.90
12841;DHT22;6487;48.626;12.486;2023-08-30T13:47:56;20.20;99.90
12841;DHT22;6487;48.626;12.486;2023-08-30T13:50:24;20.10;99.90
12841;DHT22;6487;48.626;12.486;2023-08-30T13:52:58;20.00;99.90
12841;DHT22;6487;48.626;12.486;2023-08-30T13:55:27;20.00;99.90
12841;DHT22;6487;48.626;12.486;2023-08-30T13:57:55;20.10;99.90
12841;DHT22;6487;48.626;12.486;2023-08-30T14:00:23;20.00;99.90
12841;DHT22;6487;48.626;12.486;2023-08-30T14:02:52;20.00;99.90
12841;DHT22;6487;48.626;12.486;2023-08-30T14:05:20;20.10;99.90
12841;DHT22;6487;48.626;12.486;2023-08-30T14:07:49;20.20;99.90
12841;DHT22;6487;48.626;12.486;2023-08-30T14:10:22;20.30;99.90
12841;DHT22;6487;48.626;12.486;2023-08-30T14:12:50;20.30;99.90
12841;DHT22;6487;48.626;12.486;2023-08-30T14:15:19;20.50;99.90
12841;DHT22;6487;48.626;12.486;2023-08-30T14:17:47;20.60;99.90
12841;DHT22;6487;48.626;12.486;2023-08-30T14:20:16;20.60;99.90
12841;DHT22;6487;48.626;12.486;2023-08-30T14:22:45;20.70;99.90
12841;DHT22;6487;48.626;12.486;2023-08-30T14:25:15;20.60;99.90
12841;DHT22;6487;48.626;12.486;2023-08-30T14:27:46;20.70;99.90
12841;DHT22;6487;48.626;12.486;2023-08-30T14:30:15;20.80;99.90
12841;DHT22;6487;48.626;12.486;2023-08-30T14:32:43;20.90;99.90
12841;DHT22;6487;48.626;12.486;2023-08-30T14:35:12;20.90;99.90
12841;DHT22;6487;48.626;12.486;2023-08-30T14:37:40;20.90;99.90
12841;DHT22;6487;48.626;12.486;2023-08-30T14:40:09;20.80;99.90
12841;DHT22;6487;48.626;12.486;2023-08-30T14:42:38;20.90;99.90
12841;DHT22;6487;48.626;12.486;2023-08-30T14:45:08;20.90;99.90
12841;DHT22;6487;48.626;12.486;2023-08-30T14:47:37;20.90;99.90
12841;DHT22;6487;48.626;12.486;2023-08-30T14:50:07;21.00;99.90
12841;DHT22;6487;48.626;12.486;2023-08-30T14:52:36;21.00;99.90
12841;DHT22;6487;48.626;12.486;2023-08-30T14:55:05;20.90;99.90
12841;DHT22;6487;48.626;12.486;2023-08-30T14:57:34;21.00;99.90
12841;DHT22;6487;48.626;12.486;2023-08-30T15:00:03;21.20;99.90
12841;DHT22;6487;48.626;12.486;2023-08-30T15:02:34;21.30;99.90
12841;DHT22;6487;48.626;12.486;2023-08-30T15:05:03;21.30;99.90
12841;DHT22;6487;48.626;12.486;2023-08-30T15:07:31;21.30;99.90
12841;DHT22;6487;48.626;12.486;2023-08-30T15:10:00;21.30;99.90
12841;DHT22;6487;48.626;12.486;2023-08-30T15:12:29;21.10;99.90
12841;DHT22;6487;48.626;12.486;2023-08-30T15:14:57;21.00;99.90
12841;DHT22;6487;48.626;12.486;2023-08-30T15:17:26;21.00;99.90
12841;DHT22;6487;48.626;12.486;2023-08-30T15:19:55;21.00;99.90
12841;DHT22;6487;48.626;12.486;2023-08-30T15:22:24;20.80;99.90
12841;DHT22;6487;48.626;12.486;2023-08-30T15:24:52;20.90;99.90
12841;DHT22;6487;48.626;12.486;2023-08-30T15:27:21;20.90;99.90
12841;DHT22;6487;48.626;12.486;2023-08-30T15:29:49;20.80;99.90
12841;DHT22;6487;48.626;12.486;2023-08-30T15:32:20;20.90;99.90
12841;DHT22;6487;48.626;12.486;2023-08-30T15:34:49;20.90;99.90
12841;DHT22;6487;48.626;12.486;2023-08-30T15:37:19;20.70;99.90
12841;DHT22;6487;48.626;12.486;2023-08-30T15:39:58;20.50;99.90
12841;DHT22;6487;48.626;12.486;2023-08-30T15:42:31;20.50;99.90
12841;DHT22;6487;48.626;12.486;2023-08-30T15:44:59;20.40;99.90